Time;durP1;ratioP1;P1;durP2;ratioP2;P2;SDS_P1;SDS_P2;PMS_P1;PMS_P2;Temp;Humidity;BMP_temperature;BMP_pressure;BME280_temperature;BME280_humidity;BME280_pressure;Samples;Min_cycle;Max_cycle;Signal;HPM_P1;HPM_P2
2023/05/03 00:00:59;;;;;;;7.00;2.05;;;4.50;99.90;;;;;;4996681;28;20542;-82
2023/05/03 00:03:25;;;;;;;4.85;1.95;;;4.40;99.90;;;;;;4996772;28;20050;-83
2023/05/03 00:05:52;;;;;;;5.75;1.80;;;4.40;99.90;;;;;;4980420;28;20053;-82
2023/05/03 00:08:18;;;;;;;5.80;2.05;;;4.30;99.90;;;;;;4980270;28;20053;-82
2023/05/03 00:10:43;;;;;;;5.10;1.52;;;4.30;99.90;;;;;;4996596;28;20042;-84
2023/05/03 00:13:09;;;;;;;5.00;1.90;;;4.30;99.90;;;;;;4995052;28;20053;-83
2023/05/03 00:15:35;;;;;;;6.40;1.60;;;4.20;99.90;;;;;;5012926;28;20126;-82
2023/05/03 00:18:00;;;;;;;5.80;1.80;;;4.30;99.90;;;;;;4996205;28;20046;-82
2023/05/03 00:20:26;;;;;;;4.40;1.70;;;4.40;99.90;;;;;;4996482;28;20486;-83
2023/05/03 00:22:52;;;;;;;5.95;2.22;;;4.30;99.90;;;;;;5012728;28;20096;-83
2023/05/03 00:25:18;;;;;;;5.70;2.03;;;4.30;99.90;;;;;;4996391;28;20246;-81
2023/05/03 00:27:43;;;;;;;5.63;2.15;;;4.20;99.90;;;;;;5012359;28;20038;-83
2023/05/03 00:30:09;;;;;;;7.22;1.98;;;4.10;99.90;;;;;;4996363;28;20038;-82
2023/05/03 00:32:36;;;;;;;5.35;2.10;;;4.00;99.90;;;;;;5028704;28;20061;-83
2023/05/03 00:35:02;;;;;;;6.97;2.60;;;4.00;99.90;;;;;;5012708;28;20080;-83
2023/05/03 00:37:29;;;;;;;5.03;2.30;;;3.90;99.90;;;;;;4996156;28;20525;-83
2023/05/03 00:39:55;;;;;;;6.78;2.13;;;3.80;99.90;;;;;;5029074;28;20107;-83
2023/05/03 00:42:22;;;;;;;6.75;2.10;;;3.80;99.90;;;;;;4979760;28;20042;-82
2023/05/03 00:44:48;;;;;;;5.70;2.25;;;3.80;99.90;;;;;;4980018;28;20493;-82
2023/05/03 00:47:15;;;;;;;5.53;2.33;;;3.80;99.90;;;;;;5028951;28;20136;-82
2023/05/03 00:49:41;;;;;;;6.13;2.30;;;3.80;99.90;;;;;;5029040;28;20042;-81
2023/05/03 00:52:08;;;;;;;6.97;2.60;;;3.70;99.90;;;;;;4995814;28;20470;-82
2023/05/03 00:54:35;;;;;;;6.18;2.20;;;3.70;99.90;;;;;;4996161;28;20053;-82
2023/05/03 00:57:00;;;;;;;6.70;2.30;;;3.80;99.90;;;;;;4995998;28;20057;-82
2023/05/03 00:59:27;;;;;;;5.88;2.30;;;3.80;99.90;;;;;;4996088;28;20045;-82
2023/05/03 01:01:53;;;;;;;6.25;2.30;;;3.80;99.90;;;;;;4995790;28;20518;-82
2023/05/03 01:04:20;;;;;;;6.43;2.25;;;3.80;99.90;;;;;;4979821;28;20038;-81
2023/05/03 01:07:28;;;;;;;6.95;2.10;;;3.70;99.90;;;;;;4995900;28;20514;-81
2023/05/03 01:10:20;;;;;;;4.68;1.77;;;3.80;99.90;;;;;;4936747;29;20520;-81
2023/05/03 01:12:48;;;;;;;5.32;2.00;;;3.80;99.90;;;;;;4936609;29;20147;-82
2023/05/03 01:15:51;;;;;;;5.13;1.80;;;3.80;99.90;;;;;;4992214;28;20054;-81
2023/05/03 01:18:22;;;;;;;5.20;2.33;;;3.90;99.90;;;;;;5028602;28;20128;-81
2023/05/03 01:20:50;;;;;;;8.27;2.42;;;4.30;99.90;;;;;;5011973;28;20125;-81
2023/05/03 01:23:42;;;;;;;6.32;2.00;;;3.80;99.90;;;;;;4996562;28;20042;-81
2023/05/03 01:26:35;;;;;;;;;;;3.90;99.90;;;;;;4983807;28;20099;-81
2023/05/03 01:29:00;;;;;;;4.30;1.90;;;3.90;99.90;;;;;;4998393;28;19964;-81
2023/05/03 01:31:52;;;;;;;7.07;2.80;;;3.90;99.90;;;;;;4999414;28;20045;-81
2023/05/03 01:34:33;;;;;;;7.20;2.60;;;3.90;99.90;;;;;;5031695;28;20057;-81
2023/05/03 01:37:02;;;;;;;6.75;2.60;;;3.90;99.90;;;;;;4999351;28;20139;-81
2023/05/03 01:39:47;;;;;;;6.40;2.67;;;3.90;99.90;;;;;;5032023;28;20069;-81
2023/05/03 01:42:14;;;;;;;7.47;2.70;;;4.00;99.90;;;;;;4999011;28;20042;-80
2023/05/03 01:44:41;;;;;;;6.43;2.60;;;3.90;99.90;;;;;;4999270;28;20133;-80
2023/05/03 01:47:07;;;;;;;7.82;2.70;;;4.00;99.90;;;;;;4998970;28;20053;-80
2023/05/03 01:49:34;;;;;;;6.22;2.55;;;4.00;99.90;;;;;;4999218;28;20046;-80
2023/05/03 01:52:00;;;;;;;9.63;2.78;;;4.10;99.90;;;;;;4982274;28;20486;-81
2023/05/03 01:54:25;;;;;;;6.65;2.40;;;4.10;99.90;;;;;;5015172;28;20060;-81
2023/05/03 01:56:51;;;;;;;6.20;2.30;;;4.10;99.90;;;;;;4998593;28;20038;-80
2023/05/03 01:59:17;;;;;;;7.18;2.50;;;4.10;99.90;;;;;;4982439;28;20068;-81
2023/05/03 02:01:42;;;;;;;8.27;2.60;;;4.20;99.90;;;;;;4998790;28;20093;-81
2023/05/03 02:04:09;;;;;;;7.13;2.58;;;4.10;99.90;;;;;;4998806;28;20054;-81
2023/05/03 02:06:35;;;;;;;5.75;2.20;;;4.80;99.90;;;;;;4998558;28;20405;-81
2023/05/03 02:09:01;;;;;;;5.40;2.20;;;4.20;99.90;;;;;;5015015;28;20100;-80
2023/05/03 02:11:27;;;;;;;9.45;2.72;;;4.20;99.90;;;;;;4998664;28;20046;-81
2023/05/03 02:13:52;;;;;;;6.72;2.38;;;4.30;99.90;;;;;;4981843;28;20088;-80
2023/05/03 02:16:18;;;;;;;7.20;2.63;;;4.20;99.90;;;;;;4998509;28;20393;-80
2023/05/03 02:18:44;;;;;;;6.28;2.20;;;4.20;99.90;;;;;;4981989;28;20461;-81
2023/05/03 02:21:10;;;;;;;5.22;2.15;;;4.10;99.90;;;;;;5014569;28;20077;-80
2023/05/03 02:23:36;;;;;;;6.00;2.10;;;4.10;99.90;;;;;;5014783;28;20091;-80
2023/05/03 02:26:02;;;;;;;7.10;2.30;;;4.20;99.90;;;;;;4998171;28;20132;-80
2023/05/03 02:28:27;;;;;;;6.68;2.30;;;4.20;99.90;;;;;;5014496;28;20050;-80
2023/05/03 02:30:53;;;;;;;5.50;2.03;;;4.20;99.90;;;;;;5014651;28;20357;-80
2023/05/03 02:33:19;;;;;;;4.85;2.13;;;4.10;99.90;;;;;;4981779;28;20053;-80
2023/05/03 02:35:45;;;;;;;4.35;1.90;;;4.20;99.90;;;;;;4997138;28;20057;-80
2023/05/03 02:38:10;;;;;;;6.75;2.05;;;4.10;99.90;;;;;;5014097;28;20048;-80
2023/05/03 02:40:36;;;;;;;5.55;2.05;;;4.10;99.90;;;;;;5031059;28;20127;-81
2023/05/03 02:43:02;;;;;;;6.22;2.40;;;4.10;99.90;;;;;;5013992;28;20060;-81
2023/05/03 02:45:28;;;;;;;5.70;2.20;;;4.10;99.90;;;;;;4998142;28;20049;-80
2023/05/03 02:47:54;;;;;;;5.72;2.03;;;4.00;99.90;;;;;;5014394;28;20401;-81
2023/05/03 02:50:20;;;;;;;5.10;2.00;;;3.90;99.90;;;;;;5030279;28;20046;-81
2023/05/03 02:52:46;;;;;;;7.57;2.10;;;3.90;99.90;;;;;;4998118;28;20042;-81
2023/05/03 02:55:11;;;;;;;5.00;2.30;;;4.00;99.90;;;;;;5013915;28;20482;-81
2023/05/03 02:57:38;;;;;;;5.75;2.60;;;3.90;99.90;;;;;;5015397;28;20129;-81
2023/05/03 03:00:05;;;;;;;5.40;2.20;;;3.90;99.90;;;;;;4997783;28;20509;-81
2023/05/03 03:02:30;;;;;;;4.57;1.95;;;3.90;99.90;;;;;;4997446;28;20060;-81
2023/05/03 03:04:56;;;;;;;6.38;2.15;;;3.90;99.90;;;;;;5013800;28;20046;-80
2023/05/03 03:07:22;;;;;;;5.28;1.80;;;3.90;99.90;;;;;;4980884;28;20375;-80
2023/05/03 03:09:48;;;;;;;6.18;2.28;;;3.90;99.90;;;;;;4997128;28;20050;-80
2023/05/03 03:12:14;;;;;;;6.18;2.50;;;3.90;99.90;;;;;;4990594;28;20402;-80
2023/05/03 03:14:40;;;;;;;5.88;2.55;;;3.90;99.90;;;;;;4978027;28;20050;-80
2023/05/03 03:17:09;;;;;;;5.25;2.10;;;3.90;99.90;;;;;;4961767;28;20062;-81
2023/05/03 03:19:37;;;;;;;5.90;2.72;;;3.90;99.90;;;;;;4961545;28;20049;-81
2023/05/03 03:22:03;;;;;;;4.80;2.00;;;3.80;99.90;;;;;;4977644;28;20492;-80
2023/05/03 03:24:29;;;;;;;5.18;2.20;;;3.80;99.90;;;;;;4961578;28;20058;-80
2023/05/03 03:26:54;;;;;;;6.43;2.47;;;3.90;99.90;;;;;;4977476;28;20039;-81
2023/05/03 03:29:20;;;;;;;6.05;2.38;;;3.80;99.90;;;;;;4961159;28;20133;-81
2023/05/03 03:31:46;;;;;;;7.43;2.63;;;3.80;99.90;;;;;;4977119;28;20046;-81
2023/05/03 03:34:12;;;;;;;6.20;3.03;;;3.80;99.90;;;;;;4961686;28;20050;-80
2023/05/03 03:36:38;;;;;;;6.05;2.35;;;3.70;99.90;;;;;;4977603;28;20046;-81
2023/05/03 03:39:04;;;;;;;7.55;3.20;;;3.70;99.90;;;;;;4977027;28;20053;-81
2023/05/03 03:41:32;;;;;;;6.60;2.90;;;3.70;99.90;;;;;;4961611;28;20058;-81
2023/05/03 03:43:57;;;;;;;6.00;2.70;;;3.80;99.90;;;;;;4977504;28;20050;-80
2023/05/03 03:46:23;;;;;;;7.13;2.85;;;3.70;99.90;;;;;;4977525;28;20474;-81
2023/05/03 03:48:49;;;;;;;7.82;3.03;;;3.60;99.90;;;;;;4961321;28;20047;-81
2023/05/03 03:51:18;;;;;;;5.28;2.17;;;3.60;99.90;;;;;;4961291;28;20418;-81
2023/05/03 03:53:44;;;;;;;7.50;2.80;;;3.70;99.90;;;;;;4977129;28;20058;-81
2023/05/03 03:56:10;;;;;;;6.10;2.70;;;3.60;99.90;;;;;;4961446;28;20066;-81
2023/05/03 03:58:38;;;;;;;5.68;2.83;;;3.70;99.90;;;;;;4961107;28;20081;-80
2023/05/03 04:01:05;;;;;;;5.97;2.55;;;3.60;99.90;;;;;;4961282;28;20046;-81
2023/05/03 04:03:31;;;;;;;5.63;2.60;;;3.50;99.90;;;;;;4961374;28;20085;-81
2023/05/03 04:05:56;;;;;;;6.47;2.72;;;3.60;99.90;;;;;;4993033;28;20077;-80
2023/05/03 04:08:22;;;;;;;6.43;2.95;;;3.50;99.90;;;;;;4961133;28;20050;-79
2023/05/03 04:10:48;;;;;;;6.97;2.70;;;3.50;99.90;;;;;;4993380;28;20054;-79
2023/05/03 04:13:13;;;;;;;5.90;2.30;;;3.50;99.90;;;;;;4976582;28;20097;-79
2023/05/03 04:15:39;;;;;;;5.60;2.60;;;3.50;99.90;;;;;;4977090;28;20189;-80
2023/05/03 04:18:05;;;;;;;5.70;2.80;;;3.50;99.90;;;;;;4976807;28;20046;-80
2023/05/03 04:20:32;;;;;;;7.10;2.88;;;3.50;99.90;;;;;;4977023;28;20096;-80
2023/05/03 04:22:59;;;;;;;6.45;2.90;;;3.60;99.90;;;;;;4960543;28;20061;-80
2023/05/03 04:25:25;;;;;;;8.02;3.28;;;3.70;99.90;;;;;;4977037;28;20062;-81
2023/05/03 04:27:54;;;;;;;5.78;2.47;;;3.70;99.90;;;;;;4960724;28;20495;-80
2023/05/03 04:30:20;;;;;;;5.57;2.58;;;3.70;99.90;;;;;;4976848;28;20103;-80
2023/05/03 04:32:46;;;;;;;7.70;3.25;;;4.30;99.90;;;;;;4976863;28;20042;-80
2023/05/03 04:35:12;;;;;;;8.25;3.88;;;3.80;99.90;;;;;;4976972;28;20101;-81
2023/05/03 04:37:39;;;;;;;8.38;3.10;;;3.90;99.90;;;;;;4944622;28;20491;-81
2023/05/03 04:40:08;;;;;;;6.40;3.25;;;3.90;99.90;;;;;;4976533;28;20058;-81
2023/05/03 04:42:35;;;;;;;7.57;3.33;;;4.00;99.90;;;;;;4977069;28;20105;-81
2023/05/03 04:45:02;;;;;;;6.75;3.42;;;4.00;99.90;;;;;;4976847;28;20088;-81
2023/05/03 04:47:28;;;;;;;7.72;4.18;;;4.00;99.90;;;;;;4960616;28;20062;-81
2023/05/03 04:49:54;;;;;;;8.63;4.30;;;4.10;99.90;;;;;;4944643;28;20054;-80
2023/05/03 04:52:20;;;;;;;8.55;4.50;;;4.10;99.90;;;;;;4976720;28;20466;-81
2023/05/03 04:54:46;;;;;;;8.98;3.80;;;4.20;99.90;;;;;;4976846;28;20050;-81
2023/05/03 04:57:14;;;;;;;7.88;4.20;;;4.30;99.90;;;;;;4976616;28;20105;-81
2023/05/03 04:59:40;;;;;;;8.90;3.70;;;4.30;99.90;;;;;;4995919;28;20490;-81
2023/05/03 05:02:06;;;;;;;10.20;4.38;;;4.40;99.90;;;;;;4980020;28;20097;-81
2023/05/03 05:04:35;;;;;;;8.20;3.92;;;4.50;99.90;;;;;;4979951;28;20108;-81
2023/05/03 05:07:00;;;;;;;8.43;3.78;;;4.50;99.90;;;;;;4980420;28;20047;-80
2023/05/03 05:09:27;;;;;;;7.63;3.67;;;4.50;99.90;;;;;;4980377;28;20042;-80
2023/05/03 05:11:54;;;;;;;8.52;4.20;;;4.60;99.90;;;;;;4963900;28;20510;-80
2023/05/03 05:14:20;;;;;;;8.85;4.10;;;4.70;99.90;;;;;;4964163;28;20058;-80
2023/05/03 05:16:45;;;;;;;8.48;4.00;;;4.70;99.90;;;;;;4979843;28;20061;-81
2023/05/03 05:19:12;;;;;;;8.05;3.90;;;4.70;99.90;;;;;;4979979;28;20441;-81
2023/05/03 05:21:38;;;;;;;8.27;4.10;;;4.90;99.90;;;;;;4979939;28;20490;-81
2023/05/03 05:24:04;;;;;;;9.80;4.00;;;4.90;99.90;;;;;;4963759;28;20043;-81
2023/05/03 05:26:30;;;;;;;8.27;3.90;;;5.00;99.90;;;;;;4979996;28;20133;-81
2023/05/03 05:28:56;;;;;;;9.30;5.00;;;5.10;99.90;;;;;;4979919;28;20056;-80
2023/05/03 05:31:25;;;;;;;8.07;4.28;;;5.20;99.90;;;;;;4963695;28;20366;-81
2023/05/03 05:33:51;;;;;;;6.53;4.30;;;5.30;99.90;;;;;;4979913;28;20085;-81
2023/05/03 05:36:17;;;;;;;8.63;4.30;;;5.30;99.90;;;;;;4979835;28;20545;-81
2023/05/03 05:38:43;;;;;;;8.35;4.00;;;5.50;99.90;;;;;;4963346;28;20093;-81
2023/05/03 05:41:08;;;;;;;7.90;4.18;;;5.50;99.90;;;;;;4979806;28;20065;-81
2023/05/03 05:43:34;;;;;;;9.15;4.60;;;5.70;99.90;;;;;;4979686;28;20429;-81
2023/05/03 05:46:00;;;;;;;10.88;4.40;;;5.80;99.90;;;;;;4979357;28;20054;-80
2023/05/03 05:48:26;;;;;;;9.55;4.13;;;5.90;99.90;;;;;;4979468;28;20046;-80
2023/05/03 05:50:52;;;;;;;8.68;4.50;;;6.00;99.90;;;;;;4979303;28;20074;-81
2023/05/03 05:53:17;;;;;;;10.43;5.00;;;6.10;99.90;;;;;;4979659;28;20051;-81
2023/05/03 05:55:46;;;;;;;8.48;5.15;;;6.20;99.90;;;;;;4963278;28;20042;-81
2023/05/03 05:58:12;;;;;;;10.52;5.30;;;6.30;99.90;;;;;;4962966;28;20042;-82
2023/05/03 06:00:41;;;;;;;9.93;4.78;;;6.30;99.90;;;;;;4947209;28;20064;-81
2023/05/03 06:03:07;;;;;;;8.10;4.65;;;6.50;99.90;;;;;;4979393;28;20137;-81
2023/05/03 06:05:32;;;;;;;9.90;4.90;;;6.50;99.90;;;;;;4979301;28;20125;-80
2023/05/03 06:07:58;;;;;;;7.50;4.47;;;6.60;99.90;;;;;;4963134;28;20085;-81
2023/05/03 06:10:27;;;;;;;10.05;4.82;;;6.70;99.90;;;;;;4945845;28;20157;-81
2023/05/03 06:12:53;;;;;;;8.13;4.53;;;6.90;99.90;;;;;;4962631;28;20116;-81
2023/05/03 06:15:21;;;;;;;9.68;5.00;;;7.00;99.90;;;;;;4978891;28;20058;-81
2023/05/03 06:17:47;;;;;;;9.18;4.38;;;7.00;99.90;;;;;;4962880;28;20055;-81
2023/05/03 06:20:13;;;;;;;9.52;4.20;;;7.10;99.90;;;;;;4979285;28;20054;-81
2023/05/03 06:22:39;;;;;;;8.32;4.30;;;7.10;99.90;;;;;;4979221;28;20117;-81
2023/05/03 06:25:06;;;;;;;11.13;4.28;;;7.20;99.90;;;;;;4978551;28;20125;-81
2023/05/03 06:27:32;;;;;;;6.47;3.50;;;7.40;99.90;;;;;;4963042;28;20046;-81
2023/05/03 06:29:58;;;;;;;9.65;3.72;;;7.40;99.90;;;;;;4978695;28;20053;-81
2023/05/03 06:32:23;;;;;;;7.68;3.85;;;7.50;99.90;;;;;;4978878;28;20549;-81
2023/05/03 06:34:49;;;;;;;11.85;5.13;;;7.50;99.90;;;;;;4978801;28;20089;-81
2023/05/03 06:37:16;;;;;;;7.47;3.78;;;7.60;99.90;;;;;;4978118;28;20049;-81
2023/05/03 06:39:42;;;;;;;7.90;3.67;;;7.70;99.90;;;;;;4978519;28;20387;-80
2023/05/03 06:42:07;;;;;;;7.97;4.25;;;7.70;99.90;;;;;;4946715;28;20065;-81
2023/05/03 06:44:33;;;;;;;7.53;3.75;;;7.80;99.90;;;;;;4978600;28;20061;-81
2023/05/03 06:46:59;;;;;;;8.02;3.40;;;7.80;99.90;;;;;;4978628;28;20057;-81
2023/05/03 06:49:25;;;;;;;7.97;3.17;;;7.90;99.90;;;;;;4994471;28;20054;-82
2023/05/03 06:51:51;;;;;;;8.00;3.47;;;8.00;99.90;;;;;;4957070;28;20507;-82
2023/05/03 06:54:18;;;;;;;7.25;3.28;;;8.00;99.90;;;;;;5006820;28;20052;-81
2023/05/03 06:56:45;;;;;;;8.25;3.20;;;8.10;99.90;;;;;;5014225;28;20081;-81
2023/05/03 06:59:11;;;;;;;8.02;3.42;;;8.20;99.90;;;;;;5030390;28;20104;-82
2023/05/03 07:01:36;;;;;;;8.85;3.38;;;8.20;99.90;;;;;;4981616;28;20430;-82
2023/05/03 07:04:02;;;;;;;7.80;3.45;;;8.30;99.90;;;;;;4981571;28;20073;-82
2023/05/03 07:06:28;;;;;;;8.25;3.50;;;8.40;99.90;;;;;;5030524;28;20156;-82
2023/05/03 07:08:54;;;;;;;7.15;3.58;;;8.60;99.90;;;;;;5013786;28;20050;-81
2023/05/03 07:11:24;;;;;;;8.43;3.47;;;8.70;99.90;;;;;;5030397;28;20124;-81
2023/05/03 07:13:50;;;;;;;6.65;3.15;;;8.90;99.90;;;;;;5030139;28;20379;-81
2023/05/03 07:16:17;;;;;;;7.97;3.55;;;9.20;99.90;;;;;;5017062;28;20057;-82
2023/05/03 07:18:43;;;;;;;7.72;2.88;;;9.80;99.90;;;;;;5016925;28;20049;-82
2023/05/03 07:21:09;;;;;;;6.85;3.28;;;9.80;99.90;;;;;;5016872;28;20556;-82
2023/05/03 07:23:35;;;;;;;7.45;3.00;;;9.90;99.90;;;;;;5033215;28;20136;-82
2023/05/03 07:26:01;;;;;;;7.57;2.90;;;10.00;99.90;;;;;;5016422;28;20045;-82
2023/05/03 07:28:26;;;;;;;6.57;2.80;;;10.00;99.90;;;;;;5033421;28;20054;-83
2023/05/03 07:30:52;;;;;;;6.18;2.20;;;10.30;99.90;;;;;;5016689;28;20052;-82
2023/05/03 07:33:18;;;;;;;7.82;1.80;;;10.70;99.90;;;;;;5000426;28;20140;-83
2023/05/03 07:35:47;;;;;;;5.72;1.40;;;10.80;98.50;;;;;;5017015;28;20046;-83
2023/05/03 07:38:13;;;;;;;6.30;1.67;;;10.70;98.40;;;;;;5049521;28;20501;-83
2023/05/03 07:40:40;;;;;;;4.65;1.70;;;10.80;99.60;;;;;;5033201;28;20084;-82
2023/05/03 07:43:08;;;;;;;4.50;1.50;;;10.80;98.50;;;;;;5048874;28;20060;-83
2023/05/03 07:45:35;;;;;;;5.38;1.50;;;10.50;95.20;;;;;;5049855;28;20049;-82
2023/05/03 07:48:01;;;;;;;4.65;1.55;;;10.20;96.60;;;;;;5033028;28;20053;-82
2023/05/03 07:50:27;;;;;;;4.43;1.40;;;10.30;96.40;;;;;;5049366;28;20050;-81
2023/05/03 07:52:53;;;;;;;5.70;1.85;;;10.40;96.10;;;;;;5032633;28;20049;-82
2023/05/03 07:55:19;;;;;;;6.07;1.90;;;10.40;97.70;;;;;;4999589;28;20107;-82
2023/05/03 07:57:45;;;;;;;7.55;2.85;;;10.20;96.60;;;;;;5049445;28;20045;-82
2023/05/03 08:00:12;;;;;;;14.68;7.53;;;10.30;99.00;;;;;;5032643;28;20486;-83
2023/05/03 08:02:38;;;;;;;5.50;1.92;;;10.30;98.00;;;;;;5049447;28;20085;-81
2023/05/03 08:05:05;;;;;;;9.63;4.10;;;10.40;97.40;;;;;;5032758;28;20149;-82
2023/05/03 08:07:31;;;;;;;8.20;3.58;;;10.30;96.60;;;;;;5000011;28;20051;-81
2023/05/03 08:09:58;;;;;;;16.27;8.85;;;10.40;97.30;;;;;;5032745;28;20049;-80
2023/05/03 08:12:27;;;;;;;5.72;2.22;;;10.40;97.20;;;;;;4999159;28;20052;-82
2023/05/03 08:14:54;;;;;;;5.28;1.63;;;10.50;98.30;;;;;;4999628;28;20540;-81
2023/05/03 08:17:21;;;;;;;17.15;7.03;;;10.50;98.10;;;;;;5032459;28;20045;-83
2023/05/03 08:19:47;;;;;;;12.13;5.05;;;10.60;98.40;;;;;;4999820;28;20045;-81
2023/05/03 08:22:13;;;;;;;7.25;2.20;;;10.70;98.10;;;;;;5048718;28;20444;-82
2023/05/03 08:24:39;;;;;;;10.68;4.45;;;10.80;97.20;;;;;;5032166;28;20045;-82
2023/05/03 08:27:06;;;;;;;5.85;1.92;;;10.80;97.70;;;;;;5032507;28;20405;-83
2023/05/03 08:29:33;;;;;;;17.17;9.75;;;10.90;97.10;;;;;;5032135;28;20615;-83
2023/05/03 08:31:58;;;;;;;19.67;11.45;;;10.80;97.90;;;;;;5032477;28;20104;-82
2023/05/03 08:34:24;;;;;;;10.05;5.07;;;10.80;97.00;;;;;;5014919;28;20137;-82
2023/05/03 08:36:50;;;;;;;8.18;3.42;;;10.90;97.50;;;;;;5015924;28;20075;-83
2023/05/03 08:39:17;;;;;;;9.75;3.47;;;10.90;96.20;;;;;;5048713;28;20398;-82
2023/05/03 08:41:43;;;;;;;7.03;1.80;;;10.70;95.40;;;;;;5031645;28;20053;-83
2023/05/03 08:44:21;;;;;;;8.23;2.17;;;10.80;95.00;;;;;;5032200;28;20052;-82
2023/05/03 08:46:47;;;;;;;7.13;2.17;;;10.60;96.10;;;;;;5032122;28;20120;-81
2023/05/03 08:49:14;;;;;;;5.30;2.20;;;10.60;96.70;;;;;;4998935;28;20148;-83
2023/05/03 08:51:41;;;;;;;6.78;2.05;;;10.50;96.90;;;;;;5048663;28;20049;-84
2023/05/03 08:54:07;;;;;;;5.40;1.70;;;10.70;96.60;;;;;;5048896;28;20096;-84
2023/05/03 08:56:40;;;;;;;6.30;1.90;;;10.90;95.30;;;;;;5027996;28;20132;-85
2023/05/03 08:59:07;;;;;;;5.60;1.80;;;11.00;94.80;;;;;;4995863;28;20038;-83
2023/05/03 09:01:36;;;;;;;5.00;1.70;;;11.30;94.60;;;;;;4996104;28;20054;-83
2023/05/03 09:04:02;;;;;;;8.13;1.90;;;11.50;93.40;;;;;;4995800;28;20057;-82
2023/05/03 09:06:31;;;;;;;6.22;2.38;;;11.50;94.00;;;;;;4996059;28;20062;-82
2023/05/03 09:08:58;;;;;;;5.78;1.83;;;11.50;94.50;;;;;;4995963;28;20128;-82
2023/05/03 09:11:29;;;;;;;5.75;1.60;;;11.50;93.90;;;;;;5012428;28;20049;-82
2023/05/03 09:14:13;;;;;;;5.28;1.60;;;11.60;92.10;;;;;;4976041;28;20050;-82
2023/05/03 09:16:40;;;;;;;6.13;1.80;;;11.50;92.40;;;;;;4976399;28;20054;-83
2023/05/03 09:19:10;;;;;;;5.53;1.73;;;11.10;91.50;;;;;;4992035;28;20140;-82
2023/05/03 09:21:37;;;;;;;7.13;1.80;;;11.10;92.90;;;;;;4976074;28;20403;-82
2023/05/03 09:24:15;;;;;;;6.85;1.75;;;11.10;92.90;;;;;;4976235;28;20486;-81
2023/05/03 09:26:41;;;;;;;5.63;1.50;;;11.90;92.40;;;;;;4992095;28;20100;-84
2023/05/03 09:29:07;;;;;;;5.70;1.73;;;12.50;92.60;;;;;;4992594;28;20122;-83
2023/05/03 09:31:35;;;;;;;7.30;1.70;;;12.90;90.40;;;;;;4992601;28;20050;-83
2023/05/03 09:34:01;;;;;;;6.95;1.65;;;12.80;86.10;;;;;;4992524;28;20050;-83
2023/05/03 09:36:27;;;;;;;4.43;1.60;;;12.50;84.50;;;;;;4992624;28;20057;-82
2023/05/03 09:38:54;;;;;;;7.32;1.83;;;12.70;85.80;;;;;;4992276;28;20082;-82
2023/05/03 09:41:28;;;;;;;3.47;1.48;;;13.00;87.50;;;;;;5008761;28;20054;-84
2023/05/03 09:43:55;;;;;;;5.28;1.77;;;13.50;84.90;;;;;;5008551;28;20060;-83
2023/05/03 09:46:26;;;;;;;5.38;1.50;;;13.90;83.40;;;;;;5015570;28;20166;-85
2023/05/03 09:48:54;;;;;;;6.32;1.60;;;13.80;81.30;;;;;;4998930;28;20490;-82
2023/05/03 09:51:22;;;;;;;4.45;1.60;;;13.90;77.90;;;;;;4998925;28;20054;-84
2023/05/03 09:53:48;;;;;;;5.95;1.75;;;13.90;81.80;;;;;;4998945;28;20107;-83
2023/05/03 09:56:15;;;;;;;5.90;1.70;;;13.60;77.30;;;;;;4999245;28;20050;-83
2023/05/03 09:58:42;;;;;;;6.22;1.85;;;13.20;76.40;;;;;;4998688;28;20486;-84
2023/05/03 10:01:09;;;;;;;5.55;1.80;;;12.70;78.10;;;;;;4998969;28;20433;-84
2023/05/03 10:03:53;;;;;;;4.05;1.50;;;12.70;79.00;;;;;;4982514;28;20185;-83
2023/05/03 10:06:22;;;;;;;4.75;1.70;;;13.00;83.00;;;;;;4999024;28;20131;-85
2023/05/03 10:09:20;;;;;;;5.72;1.77;;;13.60;83.90;;;;;;4998554;28;20062;-86
2023/05/03 10:11:57;;;;;;;5.55;1.80;;;14.10;80.90;;;;;;4977214;28;20049;-85
2023/05/03 10:14:23;;;;;;;7.72;1.83;;;14.50;80.00;;;;;;5051186;28;20056;-83
2023/05/03 10:16:52;;;;;;;5.57;1.50;;;15.00;78.40;;;;;;5001265;28;20053;-84
2023/05/03 10:19:27;;;;;;;5.47;1.70;;;15.30;77.80;;;;;;5051020;28;20050;-84
2023/05/03 10:22:06;;;;;;;7.78;1.80;;;15.10;72.80;;;;;;5051143;28;20056;-83
2023/05/03 10:24:33;;;;;;;5.57;1.70;;;15.00;72.50;;;;;;5050928;28;20487;-84
2023/05/03 10:27:00;;;;;;;6.75;1.92;;;14.70;72.00;;;;;;5051185;28;20053;-84
2023/05/03 10:29:34;;;;;;;5.22;1.63;;;14.80;73.10;;;;;;5051031;28;20060;-84
2023/05/03 10:32:02;;;;;;;6.63;1.90;;;15.00;71.10;;;;;;5034343;28;20059;-84
2023/05/03 10:34:33;;;;;;;5.43;1.90;;;15.00;71.80;;;;;;5051216;28;20053;-83
2023/05/03 10:37:10;;;;;;;6.65;2.00;;;15.10;72.30;;;;;;5050914;28;20637;-89
2023/05/03 10:39:36;;;;;;;5.38;1.80;;;15.50;70.80;;;;;;5033819;28;20440;-85
2023/05/03 10:42:06;;;;;;;7.22;1.90;;;15.20;66.40;;;;;;5001078;28;20084;-86
2023/05/03 10:44:52;;;;;;;6.43;1.95;;;15.00;68.70;;;;;;5051073;28;20050;-86
2023/05/03 10:47:23;;;;;;;7.30;2.00;;;15.30;67.70;;;;;;5050898;28;20045;-86
2023/05/03 10:50:10;;;;;;;6.60;1.83;;;15.30;67.50;;;;;;5050849;28;20559;-85
2023/05/03 10:52:39;;;;;;;5.82;1.70;;;15.30;65.00;;;;;;5033965;28;20049;-86
2023/05/03 10:55:14;;;;;;;6.20;1.88;;;15.30;66.80;;;;;;5034144;28;20049;-85
2023/05/03 10:57:42;;;;;;;6.50;2.00;;;15.40;68.30;;;;;;5016292;28;20103;-87
2023/05/03 11:00:15;;;;;;;5.03;1.80;;;15.40;65.20;;;;;;5017729;28;20060;-86
2023/05/03 11:03:11;;;;;;;5.20;1.80;;;15.30;69.20;;;;;;5034808;28;20053;-83
2023/05/03 11:05:38;;;;;;;7.40;2.00;;;15.00;65.00;;;;;;5017782;28;20048;-86
2023/05/03 11:08:11;;;;;;;6.55;1.98;;;14.50;67.50;;;;;;5033770;28;20041;-86
2023/05/03 11:10:43;;;;;;;7.40;1.88;;;14.70;67.40;;;;;;5033691;28;20567;-87
2023/05/03 11:13:09;;;;;;;5.65;1.80;;;14.80;65.50;;;;;;5033557;28;20067;-88
2023/05/03 11:15:35;;;;;;;5.22;2.20;;;14.80;68.10;;;;;;5033699;28;20057;-88
2023/05/03 11:18:02;;;;;;;6.65;2.08;;;15.00;64.50;;;;;;5033612;28;20054;-87
2023/05/03 11:20:28;;;;;;;5.35;1.95;;;15.00;68.80;;;;;;5049849;28;20081;-87
2023/05/03 11:22:55;;;;;;;5.75;1.90;;;15.10;64.90;;;;;;5017065;28;20509;-88
2023/05/03 11:25:21;;;;;;;6.22;2.00;;;15.20;69.60;;;;;;5034603;28;20045;-86
2023/05/03 11:27:47;;;;;;;5.70;2.10;;;15.40;69.20;;;;;;5034837;28;20046;-86
2023/05/03 11:30:13;;;;;;;5.07;2.20;;;15.10;66.80;;;;;;5034279;28;20135;-85
2023/05/03 11:32:43;;;;;;;5.47;2.10;;;14.50;68.40;;;;;;5033778;28;20053;-84
2023/05/03 11:35:12;;;;;;;5.65;2.10;;;14.30;69.10;;;;;;5033111;28;20058;-85
2023/05/03 11:37:38;;;;;;;4.88;1.80;;;14.20;67.60;;;;;;5051625;28;20567;-85
2023/05/03 11:40:07;;;;;;;5.88;1.95;;;14.10;68.60;;;;;;5050376;28;20501;-86
2023/05/03 11:42:33;;;;;;;5.88;2.00;;;14.20;70.50;;;;;;5001936;28;20054;-88
2023/05/03 11:45:00;;;;;;;6.25;2.03;;;14.20;71.00;;;;;;5018392;28;20054;-86
2023/05/03 11:47:26;;;;;;;5.45;2.00;;;14.30;70.60;;;;;;5049994;28;20116;-87
2023/05/03 11:49:52;;;;;;;7.85;2.17;;;14.60;72.90;;;;;;5016596;28;20160;-86
2023/05/03 11:52:23;;;;;;;7.22;2.67;;;14.80;68.80;;;;;;5053334;28;20137;-86
2023/05/03 11:54:53;;;;;;;6.20;1.90;;;14.60;68.00;;;;;;5033352;28;20065;-86
2023/05/03 11:57:20;;;;;;;6.05;2.10;;;14.90;69.00;;;;;;5051808;28;20049;-86
2023/05/03 11:59:48;;;;;;;4.80;2.00;;;14.90;69.30;;;;;;5003331;28;20393;-88
2023/05/03 12:02:14;;;;;;;5.85;2.20;;;14.70;69.60;;;;;;5025493;28;20425;-88
2023/05/03 12:04:44;;;;;;;7.20;2.50;;;14.80;67.60;;;;;;5005742;28;20105;-86
2023/05/03 12:07:10;;;;;;;7.80;2.53;;;14.30;67.60;;;;;;5027606;28;20103;-87
2023/05/03 12:09:36;;;;;;;6.30;2.35;;;14.70;65.20;;;;;;5025045;28;20044;-87
2023/05/03 12:12:03;;;;;;;5.47;2.40;;;14.80;70.10;;;;;;5008174;28;20060;-88
2023/05/03 12:14:59;;;;;;;5.18;2.25;;;14.90;70.70;;;;;;5020320;28;20096;-88
2023/05/03 12:17:35;;;;;;;6.22;2.40;;;15.00;70.20;;;;;;5060593;28;20042;-87
2023/05/03 12:20:23;;;;;;;5.97;2.10;;;14.90;66.90;;;;;;5011647;28;20049;-88
2023/05/03 12:22:54;;;;;;;5.47;2.42;;;14.90;64.40;;;;;;5055230;28;20104;-88
2023/05/03 12:25:21;;;;;;;6.40;2.42;;;14.80;65.30;;;;;;5009362;28;20109;-87
2023/05/03 12:27:47;;;;;;;5.75;2.35;;;14.50;65.50;;;;;;5057826;28;20053;-85
2023/05/03 12:30:13;;;;;;;6.18;2.50;;;14.20;68.40;;;;;;5037870;28;20128;-86
2023/05/03 12:32:39;;;;;;;7.70;2.53;;;14.40;70.40;;;;;;5022798;28;20049;-88
2023/05/03 12:35:09;;;;;;;5.78;2.50;;;14.50;70.70;;;;;;5021409;28;20450;-88
2023/05/03 12:37:36;;;;;;;6.03;2.10;;;14.50;69.90;;;;;;5049973;28;20140;-89
2023/05/03 12:40:08;;;;;;;6.93;2.42;;;14.50;70.90;;;;;;5017746;28;20049;-88
2023/05/03 12:42:34;;;;;;;6.72;2.40;;;14.70;68.70;;;;;;5039961;28;20115;-88
2023/05/03 12:45:00;;;;;;;5.03;2.00;;;14.50;68.00;;;;;;5023471;28;20041;-89
2023/05/03 12:47:26;;;;;;;7.95;2.70;;;14.80;67.20;;;;;;5055716;28;20049;-88
2023/05/03 12:49:53;;;;;;;6.55;2.30;;;15.00;67.60;;;;;;5003169;28;20052;-86
2023/05/03 12:52:20;;;;;;;5.45;2.25;;;14.90;66.60;;;;;;5050652;28;20111;-86
2023/05/03 12:54:46;;;;;;;5.30;2.30;;;15.10;67.50;;;;;;5053748;28;20084;-89
2023/05/03 12:57:13;;;;;;;5.38;2.40;;;15.10;69.60;;;;;;5028677;28;20057;-88